Colebrook, Connecticut
Current Conditions -  °F | °C
As of 1:51 AM on Monday 24 Nov 2014 (Local Time) from KBDL Reporting Station
Overcast Overcast  
Wind Chill: 42°   Ceiling: 1100
Heat Index: 44°   Visibility: 10mi
Dew Point: 33°   Wind: 5mph
Humidity: 65%   Direction: 10°N
Pressure: 29.99"   Gusts: NA
Location:  41.99°N, 73.1°W
Report Text: KBDL 240651Z 01004KT 10SM BKN011 OVC033 07/01 A2999 RMK AO2 SLP157 T00670006
Loading
Personal Weather Stations






























Interactive Weather Map New forecast layout! Learn more

10-Day Weather Forecast

Advertisements
Track Severe Weather on mobile